Météo Nord-Pas-de-Calais   La météo au plus près de chez vous

Station météorologique

Observations météo à Bernay (27056)

27056003 166 m Dernier relevé à 05:06
12.3°C
Humidité 95 % Vent 6.8 km/h

Journée consultée

Mardi 1 Septembre 2026

Synthèse de la journée

Périodes de référence en UTC

Température maximale

22.3°C

à 16:00

06h 06h

Température minimale

12.2°C

à 04:30

18h 18h

Rafale maximale

14 km/h

à 03:30

00h 00h

Précipitations

0.9 mm

Cumul quotidien

06h 06h

Ensoleillement

0h 0 mins

Durée quotidienne

00h 00h

Graphiques de la journée

Heure locale Réduire

Données détaillées

Relevés météo

Pas de 6 minutes Afficher les relevés infra-horaires
Relevés météo détaillés à Bernay pour le Mardi 1 Septembre 2026
Heure Température °C Point de rosée °C Humidité % Vent moyen (raf.), km/h Précipitations mm Ensoleillement min Rayonnement global W/m²
05:06 12.3 °C 11.8 °C 97 % 7 km/h (10 km/h) 0 mm0 mm 0 min 0 W/m²
05:00 12.2 °C 11.7 °C 97 % 6 km/h (10 km/h) 0 mm0 mm 0 min 0 W/m²
04:54 12.3 °C 11.8 °C 97 % 6 km/h (14 km/h) 0 mm0 mm 0 min 0 W/m²
04:48 12.3 °C 11.8 °C 97 % 6 km/h (14 km/h) 0 mm0 mm 0 min 0 W/m²
04:42 12.3 °C 11.8 °C 97 % 7 km/h (14 km/h) 0 mm0 mm 0 min 0 W/m²
04:36 12.2 °C 11.7 °C 97 % 8 km/h (13 km/h) 0 mm0 mm 0 min 0 W/m²
04:30 12.2 °C 11.6 °C 96 % 8 km/h (13 km/h) 0 mm0 mm 0 min 0 W/m²
04:24 12.4 °C 11.8 °C 96 % 8 km/h (12 km/h) 0 mm0 mm 0 min 0 W/m²
04:18 12.5 °C 11.9 °C 96 % 7 km/h (12 km/h) 0 mm0 mm 0 min 0 W/m²
04:12 12.5 °C 11.9 °C 96 % 7 km/h (10 km/h) 0 mm0 mm 0 min 0 W/m²
04:06 12.6 °C 11.8 °C 95 % 7 km/h (10 km/h) 0 mm0 mm 0 min 0 W/m²
04:00 12.7 °C 11.9 °C 95 % 6 km/h (10 km/h) 0 mm0 mm 0 min 0 W/m²
03:54 12.7 °C 11.8 °C 94 % 6 km/h (10 km/h) 0 mm0 mm 0 min 0 W/m²
03:48 12.9 °C 12 °C 94 % 6 km/h (10 km/h) 0 mm0 mm 0 min 0 W/m²
03:42 13 °C 12.1 °C 94 % 7 km/h (11 km/h) 0 mm0 mm 0 min 0 W/m²
03:36 13 °C 12.1 °C 94 % 8 km/h (12 km/h) 0 mm0 mm 0 min 0 W/m²
03:30 13.1 °C 12.2 °C 94 % 9 km/h (14 km/h) 0 mm0 mm 0 min 0 W/m²
03:24 13 °C 12.1 °C 94 % 8 km/h (13 km/h) 0 mm0 mm 0 min 0 W/m²
03:18 13.1 °C 12.3 °C 95 % 9 km/h (13 km/h) 0 mm0 mm 0 min 0 W/m²
03:12 13.1 °C 12.2 °C 94 % 9 km/h (13 km/h) 0 mm0 mm 0 min 0 W/m²
03:06 13.1 °C 12.2 °C 94 % 8 km/h (12 km/h) 0 mm0 mm 0 min 0 W/m²
03:00 13.3 °C 12.4 °C 94 % 8 km/h (13 km/h) 0 mm0 mm 0 min 0 W/m²
02:54 13.4 °C 12.5 °C 94 % 9 km/h (14 km/h) 0 mm0 mm 0 min 0 W/m²
02:48 13.4 °C 12.3 °C 93 % 8 km/h (14 km/h) 0 mm0 mm 0 min 0 W/m²
02:42 13.4 °C 12.5 °C 94 % 9 km/h (13 km/h) 0 mm0 mm 0 min 0 W/m²
02:36 13.4 °C 12.3 °C 93 % 9 km/h (14 km/h) 0 mm0 mm 0 min 0 W/m²
02:30 13.5 °C 12.4 °C 93 % 9 km/h (14 km/h) 0 mm0 mm 0 min 0 W/m²
02:24 13.5 °C 12.4 °C 93 % 9 km/h (14 km/h) 0 mm0 mm 0 min 0 W/m²
02:18 13.6 °C 12.5 °C 93 % 9 km/h (14 km/h) 0 mm0 mm 0 min 0 W/m²
02:12 13.6 °C 12.5 °C 93 % 9 km/h (14 km/h) 0 mm0 mm 0 min 0 W/m²
02:06 13.6 °C 12.3 °C 92 % 9 km/h (14 km/h) 0 mm0 mm 0 min 0 W/m²
02:00 13.7 °C 12.4 °C 92 % 9 km/h (14 km/h) 0 mm0 mm 0 min 0 W/m²
01:54 13.8 °C 12.5 °C 92 % 9 km/h (15 km/h) 0 mm0 mm 0 min 0 W/m²
01:48 13.8 °C 12.4 °C 91 % 10 km/h (17 km/h) 0 mm0 mm 0 min 0 W/m²
01:42 14 °C 12.4 °C 90 % 10 km/h (17 km/h) 0 mm0 mm 0 min 0 W/m²
01:36 14.1 °C 12.7 °C 91 % 9 km/h (14 km/h) 0 mm0 mm 0 min 0 W/m²
01:30 14 °C 12.6 °C 91 % 10 km/h (16 km/h) 0 mm0 mm 0 min 0 W/m²
01:24 14 °C 12.7 °C 92 % 10 km/h (16 km/h) 0 mm0 mm 0 min 0 W/m²
01:18 14 °C 12.6 °C 91 % 9 km/h (14 km/h) 0 mm0 mm 0 min 0 W/m²
01:12 14.1 °C 12.7 °C 91 % 10 km/h (15 km/h) 0 mm0 mm 0 min 0 W/m²
01:06 14.2 °C 12.8 °C 91 % 9 km/h (15 km/h) 0 mm0 mm 0 min 0 W/m²
01:00 14.3 °C 12.8 °C 91 % 10 km/h (18 km/h) 0 mm0 mm 0 min 0 W/m²
00:54 14.4 °C 12.9 °C 91 % 11 km/h (18 km/h) 0 mm0 mm 0 min 0 W/m²
00:48 14.3 °C 12.8 °C 91 % 11 km/h (18 km/h) 0 mm0 mm 0 min 0 W/m²
00:42 14.2 °C 12.8 °C 91 % 10 km/h (18 km/h) 0 mm0 mm 0 min 0 W/m²
00:36 14.2 °C 12.8 °C 91 % 8 km/h (13 km/h) 0 mm0 mm 0 min 0 W/m²
00:30 14.4 °C 12.8 °C 90 % 7 km/h (13 km/h) 0 mm0 mm 0 min 0 W/m²
00:24 14.5 °C 12.9 °C 90 % 9 km/h (14 km/h) 0 mm0 mm 0 min 0 W/m²
00:18 14.5 °C 12.9 °C 90 % 8 km/h (14 km/h) 0 mm0 mm 0 min 0 W/m²
00:12 14.6 °C 12.8 °C 89 % 7 km/h (13 km/h) 0 mm0 mm 0 min 0 W/m²
00:06 14.7 °C 13.1 °C 90 % 9 km/h (17 km/h) 0 mm0 mm 0 min 0 W/m²
00:00 14.7 °C 13.1 °C 90 % 9 km/h (15 km/h) 0 mm0 mm 0 min 0 W/m²

Données via Météo-France

Relevés météo à Bernay

Cette page rassemble les observations de la station de Bernay : température, humidité, vent, précipitations et pression atmosphérique. Les graphiques facilitent le suivi de la journée, tandis que le tableau donne accès aux mesures horaires et infra-horaires disponibles.

Pour replacer ces mesures dans leur contexte, consultez la climatologie de Bernay ainsi que ses normales et records. Retrouvez aussi la carte des observations météo en temps réel.